Time;durP1;ratioP1;P1;durP2;ratioP2;P2;SDS_P1;SDS_P2;PMS_P1;PMS_P2;Temp;Humidity;BMP_temperature;BMP_pressure;BME280_temperature;BME280_humidity;BME280_pressure;Samples;Min_cycle;Max_cycle;Signal;HPM_P1;HPM_P2
2023/07/18 00:00:14;;;;;;;;;;;;;;;31.52;33.41;98252.69;5093417;28;19969;-91
2023/07/18 00:02:42;;;;;;;;;;;;;;;31.70;32.52;98246.09;5093411;28;20367;-90
2023/07/18 00:05:12;;;;;;;;;;;;;;;31.64;32.87;98245.19;5093241;28;20003;-91
2023/07/18 00:07:39;;;;;;;;;;;;;;;31.61;33.24;98235.59;5086454;28;20321;-90
2023/07/18 00:10:05;;;;;;;;;;;;;;;31.59;33.04;98238.13;5103677;28;20384;-91
2023/07/18 00:12:31;;;;;;;;;;;;;;;31.75;32.97;98246.22;5113457;28;19919;-90
2023/07/18 00:14:59;;;;;;;;;;;;;;;31.45;33.17;98250.19;5117491;28;20272;-91
2023/07/18 00:17:25;;;;;;;;;;;;;;;31.48;33.85;98249.25;5117606;28;19923;-91
2023/07/18 00:19:52;;;;;;;;;;;;;;;31.62;33.03;98250.56;5117484;28;19923;-90
2023/07/18 00:22:19;;;;;;;;;;;;;;;31.65;33.00;98246.78;5117580;28;19942;-90
2023/07/18 00:24:45;;;;;;;;;;;;;;;31.76;32.59;98249.88;5081560;28;19920;-90
2023/07/18 00:27:13;;;;;;;;;;;;;;;31.89;32.47;98245.50;5116604;28;19939;-91
2023/07/18 00:29:39;;;;;;;;;;;;;;;31.82;32.99;98243.03;5117373;28;19922;-90
2023/07/18 00:32:08;;;;;;;;;;;;;;;31.83;32.03;98238.94;5117536;28;19916;-90
2023/07/18 00:34:34;;;;;;;;;;;;;;;31.93;32.45;98236.78;5117817;28;20370;-90
2023/07/18 00:37:01;;;;;;;;;;;;;;;32.02;32.34;98243.22;5117099;28;19977;-90
2023/07/18 00:39:27;;;;;;;;;;;;;;;31.86;31.83;98243.63;5117169;28;19962;-90
2023/07/18 00:41:53;;;;;;;;;;;;;;;31.74;32.55;98243.88;5117327;28;19966;-90
2023/07/18 00:44:19;;;;;;;;;;;;;;;31.87;32.50;98244.41;5116398;28;19920;-90
2023/07/18 00:46:46;;;;;;;;;;;;;;;31.80;31.98;98247.63;5103833;28;19916;-90
2023/07/18 00:49:12;;;;;;;;;;;;;;;31.60;32.05;98250.28;5081213;28;20333;-90
2023/07/18 00:51:38;;;;;;;;;;;;;;;31.40;32.36;98251.59;5117211;28;19920;-90
2023/07/18 00:54:04;;;;;;;;;;;;;;;31.52;32.08;98255.53;5116909;28;19922;-90
2023/07/18 00:56:30;;;;;;;;;;;;;;;31.48;32.27;98249.25;5098811;28;19916;-90
2023/07/18 00:58:56;;;;;;;;;;;;;;;31.47;32.92;98258.22;5116866;28;19951;-90
2023/07/18 01:01:22;;;;;;;;;;;;;;;31.63;32.39;98254.97;5115686;28;19944;-90
2023/07/18 01:03:48;;;;;;;;;;;;;;;31.71;32.03;98251.31;5117425;28;19916;-90
2023/07/18 01:06:15;;;;;;;;;;;;;;;31.80;31.85;98245.56;5117701;28;20383;-90
2023/07/18 01:08:41;;;;;;;;;;;;;;;31.81;32.08;98249.22;5117120;28;19972;-90
2023/07/18 01:11:08;;;;;;;;;;;;;;;31.90;32.39;98246.31;5117565;28;19916;-90
2023/07/18 01:13:34;;;;;;;;;;;;;;;31.91;31.89;98250.69;5117416;28;19915;-90
2023/07/18 01:16:01;;;;;;;;;;;;;;;31.92;32.06;98241.72;5117465;28;20303;-90
2023/07/18 01:18:27;;;;;;;;;;;;;;;31.89;32.16;98239.84;5110429;28;20353;-90
2023/07/18 01:20:55;;;;;;;;;;;;;;;31.91;32.15;98248.66;5116215;28;19922;-90
2023/07/18 01:23:21;;;;;;;;;;;;;;;31.53;32.69;98250.63;5116544;28;19923;-90
2023/07/18 01:25:47;;;;;;;;;;;;;;;31.53;32.71;98240.03;5098415;28;19923;-90
2023/07/18 01:28:13;;;;;;;;;;;;;;;31.44;32.39;98240.09;5116373;28;20045;-90
2023/07/18 01:30:39;;;;;;;;;;;;;;;31.50;32.59;98235.34;5116519;28;19916;-91
2023/07/18 01:33:06;;;;;;;;;;;;;;;31.35;33.45;98240.09;5116612;28;19927;-90
2023/07/18 01:35:32;;;;;;;;;;;;;;;31.13;33.22;98233.91;5108423;28;19967;-90
2023/07/18 01:37:58;;;;;;;;;;;;;;;31.27;32.87;98234.00;5095507;28;19916;-91
2023/07/18 01:40:24;;;;;;;;;;;;;;;31.38;32.92;98236.31;5095622;28;19948;-90
2023/07/18 01:42:51;;;;;;;;;;;;;;;31.45;32.80;98243.72;5095720;28;19916;-90
2023/07/18 01:45:19;;;;;;;;;;;;;;;31.48;32.48;98248.44;5095332;28;19920;-90
2023/07/18 01:47:45;;;;;;;;;;;;;;;31.55;33.38;98233.91;5095869;28;19920;-90
2023/07/18 01:50:12;;;;;;;;;;;;;;;31.69;32.23;98241.72;5105872;28;19984;-91
2023/07/18 01:52:38;;;;;;;;;;;;;;;31.50;32.08;98241.03;5107655;28;19927;-91
2023/07/18 01:55:04;;;;;;;;;;;;;;;31.45;32.75;98247.34;5095379;28;19916;-90
2023/07/18 01:57:40;;;;;;;;;;;;;;;31.28;32.44;98246.91;5095381;28;19923;-90
2023/07/18 02:00:19;;;;;;;;;;;;;;;31.23;32.86;98243.94;5095327;28;19925;-90
2023/07/18 02:02:48;;;;;;;;;;;;;;;31.30;32.90;98252.91;5095591;28;20344;-90
2023/07/18 02:05:24;;;;;;;;;;;;;;;31.25;33.56;98252.78;5095397;28;19928;-90
2023/07/18 02:07:50;;;;;;;;;;;;;;;31.36;33.26;98253.84;5095663;28;19931;-91
2023/07/18 02:10:19;;;;;;;;;;;;;;;31.34;32.62;98249.91;5095772;28;19920;-90
2023/07/18 02:12:45;;;;;;;;;;;;;;;31.26;32.75;98254.34;5095836;28;19939;-90
2023/07/18 02:15:14;;;;;;;;;;;;;;;31.38;33.32;98253.34;5095139;28;19916;-91
2023/07/18 02:17:40;;;;;;;;;;;;;;;31.41;32.41;98255.22;5095145;28;20410;-91
2023/07/18 02:20:09;;;;;;;;;;;;;;;31.17;33.15;98263.69;5102355;28;19915;-91
2023/07/18 02:22:35;;;;;;;;;;;;;;;31.22;33.17;98267.91;5115504;28;20398;-91
2023/07/18 02:25:02;;;;;;;;;;;;;;;31.29;33.82;98265.53;5115516;28;19923;-91
2023/07/18 02:27:29;;;;;;;;;;;;;;;31.41;33.21;98266.59;5099895;28;20303;-91
2023/07/18 02:29:55;;;;;;;;;;;;;;;31.39;32.65;98272.72;5094642;28;19916;-91
2023/07/18 02:32:22;;;;;;;;;;;;;;;31.22;33.07;98268.72;5094743;28;19916;-90
2023/07/18 02:34:48;;;;;;;;;;;;;;;31.14;33.24;98278.03;5094556;28;19920;-91
2023/07/18 02:37:14;;;;;;;;;;;;;;;31.26;33.37;98282.72;5093841;28;19920;-91
2023/07/18 02:39:42;;;;;;;;;;;;;;;31.37;32.59;98283.78;5094541;28;19916;-91
2023/07/18 02:42:08;;;;;;;;;;;;;;;31.47;32.76;98295.13;5094323;28;19916;-91
2023/07/18 02:44:35;;;;;;;;;;;;;;;31.43;32.71;98295.28;5110095;28;20015;-91
2023/07/18 02:47:01;;;;;;;;;;;;;;;31.35;33.07;98308.22;5114889;28;19962;-91
2023/07/18 02:49:27;;;;;;;;;;;;;;;31.45;32.75;98309.00;5109943;28;19916;-91
2023/07/18 02:51:53;;;;;;;;;;;;;;;31.52;32.92;98309.44;5094504;28;19918;-90
2023/07/18 02:54:19;;;;;;;;;;;;;;;31.71;32.57;98324.34;5094221;28;19943;-90
2023/07/18 02:56:45;;;;;;;;;;;;;;;31.77;32.43;98320.38;5094344;28;20336;-90
2023/07/18 02:59:11;;;;;;;;;;;;;;;31.79;31.94;98334.88;5114333;28;19919;-91
2023/07/18 03:01:38;;;;;;;;;;;;;;;31.80;31.73;98327.13;5097638;28;19971;-91
2023/07/18 03:04:05;;;;;;;;;;;;;;;31.71;31.93;98347.84;5075789;28;19939;-91
2023/07/18 03:06:31;;;;;;;;;;;;;;;31.72;32.28;98345.78;5094426;28;19924;-90
2023/07/18 03:08:57;;;;;;;;;;;;;;;31.63;32.12;98357.19;5094044;28;20004;-91
2023/07/18 03:11:25;;;;;;;;;;;;;;;31.69;31.96;98360.97;5094166;28;19916;-91
2023/07/18 03:13:51;;;;;;;;;;;;;;;31.66;32.15;98367.59;5094021;28;20362;-90
2023/07/18 03:16:17;;;;;;;;;;;;;;;31.69;32.52;98364.59;5094019;28;20432;-90
2023/07/18 03:18:43;;;;;;;;;;;;;;;31.69;32.87;98369.47;5094107;28;19943;-90
2023/07/18 03:21:09;;;;;;;;;;;;;;;31.47;34.75;98388.78;5110228;28;19967;-90
2023/07/18 03:23:35;;;;;;;;;;;;;;;31.30;34.74;98385.47;5114270;28;19922;-90
2023/07/18 03:26:01;;;;;;;;;;;;;;;31.54;35.11;98386.41;5114130;28;19916;-89
2023/07/18 03:28:27;;;;;;;;;;;;;;;31.44;35.45;98389.75;5095830;28;20459;-90
2023/07/18 03:30:53;;;;;;;;;;;;;;;31.41;35.91;98395.06;5114088;28;19916;-90
2023/07/18 03:33:19;;;;;;;;;;;;;;;30.50;38.37;98399.97;5113838;28;19915;-91
2023/07/18 03:35:46;;;;;;;;;;;;;;;31.26;36.50;98402.69;5113174;28;19923;-90
2023/07/18 03:38:13;;;;;;;;;;;;;;;31.65;36.24;98408.63;5114038;28;19915;-91
2023/07/18 03:40:39;;;;;;;;;;;;;;;31.69;36.20;98424.22;5113838;28;20460;-91
2023/07/18 03:43:05;;;;;;;;;;;;;;;31.52;36.57;98433.56;5099495;28;19916;-89
2023/07/18 03:45:31;;;;;;;;;;;;;;;31.40;37.20;98441.75;5093708;28;20382;-91
2023/07/18 03:47:57;;;;;;;;;;;;;;;31.43;36.85;98440.03;5093963;28;20421;-91
2023/07/18 03:50:23;;;;;;;;;;;;;;;31.47;36.55;98442.72;5079587;28;19916;-90
2023/07/18 03:52:49;;;;;;;;;;;;;;;31.53;36.21;98444.41;5098439;28;19916;-90
2023/07/18 03:55:15;;;;;;;;;;;;;;;31.62;36.69;98461.47;5097733;28;19939;-91
2023/07/18 03:57:42;;;;;;;;;;;;;;;31.75;36.49;98462.03;5097623;28;19916;-90
2023/07/18 04:00:13;;;;;;;;;;;;;;;31.92;36.04;98480.31;5097747;28;20004;-91
2023/07/18 04:02:43;;;;;;;;;;;;;;;32.30;35.60;98493.13;5097242;28;19916;-91
2023/07/18 04:05:11;;;;;;;;;;;;;;;32.51;35.13;98503.47;5097675;28;19920;-91
2023/07/18 04:07:37;;;;;;;;;;;;;;;32.72;35.38;98508.84;5097721;28;20263;-91
2023/07/18 04:10:04;;;;;;;;;;;;;;;32.69;35.94;98515.53;5079340;28;20398;-91
2023/07/18 04:12:30;;;;;;;;;;;;;;;33.26;35.88;98516.25;5097292;28;19923;-91
2023/07/18 04:14:56;;;;;;;;;;;;;;;33.71;36.40;98520.00;5096064;28;19916;-92
2023/07/18 04:17:22;;;;;;;;;;;;;;;34.20;36.44;98527.88;5097049;28;20017;-91
2023/07/18 04:19:48;;;;;;;;;;;;;;;34.61;33.27;98530.38;5102261;28;19916;-92
2023/07/18 04:22:14;;;;;;;;;;;;;;;34.89;33.68;98532.88;5117610;28;20337;-92
2023/07/18 04:24:40;;;;;;;;;;;;;;;34.19;35.30;98544.22;5117086;28;19915;-91
2023/07/18 04:27:06;;;;;;;;;;;;;;;34.51;34.90;98548.88;5099044;28;19919;-92
2023/07/18 04:29:32;;;;;;;;;;;;;;;34.69;33.63;98545.81;5117540;28;19923;-92
2023/07/18 04:31:59;;;;;;;;;;;;;;;34.85;33.24;98552.25;5117190;28;19915;-92
2023/07/18 04:34:25;;;;;;;;;;;;;;;34.85;33.24;98564.44;5117356;28;20389;-92
2023/07/18 04:36:51;;;;;;;;;;;;;;;34.81;33.16;98561.03;5117213;28;19923;-92
2023/07/18 04:39:17;;;;;;;;;;;;;;;34.88;32.88;98565.53;5117270;28;19916;-91
2023/07/18 04:41:43;;;;;;;;;;;;;;;34.90;32.71;98569.47;5105074;28;19916;-92
2023/07/18 04:44:09;;;;;;;;;;;;;;;34.63;32.93;98572.69;5096864;28;19916;-91
2023/07/18 04:46:35;;;;;;;;;;;;;;;34.35;31.62;98577.91;5096931;28;19917;-92
2023/07/18 04:49:01;;;;;;;;;;;;;;;34.23;30.43;98572.50;5096669;28;20264;-92
2023/07/18 04:51:27;;;;;;;;;;;;;;;34.15;31.59;98571.31;5103472;28;19916;-92
2023/07/18 04:53:53;;;;;;;;;;;;;;;34.22;32.73;98576.63;5116946;28;19916;-92
2023/07/18 04:56:19;;;;;;;;;;;;;;;34.44;31.79;98577.00;5116987;28;20303;-92
2023/07/18 04:58:45;;;;;;;;;;;;;;;34.14;33.09;98578.31;5115065;28;19922;-92
2023/07/18 05:01:11;;;;;;;;;;;;;;;34.28;33.07;98575.47;5096443;28;19962;-92
2023/07/18 05:03:38;;;;;;;;;;;;;;;34.43;33.35;98575.44;5096501;28;19960;-92
2023/07/18 05:06:04;;;;;;;;;;;;;;;34.57;32.80;98575.44;5096543;28;20027;-92
2023/07/18 05:08:30;;;;;;;;;;;;;;;34.67;32.15;98568.34;5096312;28;19927;-92
2023/07/18 05:11:01;;;;;;;;;;;;;;;34.75;32.58;98571.59;5096154;28;20376;-92
2023/07/18 05:13:27;;;;;;;;;;;;;;;34.72;31.03;98567.66;5096158;28;19964;-92
2023/07/18 05:15:53;;;;;;;;;;;;;;;34.72;31.80;98567.66;5096770;28;20360;-92
2023/07/18 05:18:19;;;;;;;;;;;;;;;34.75;30.97;98563.03;5096175;28;19919;-92
2023/07/18 05:20:46;;;;;;;;;;;;;;;34.84;33.44;98573.50;5096104;28;19916;-92
2023/07/18 05:23:12;;;;;;;;;;;;;;;35.13;34.38;98577.06;5116533;28;20288;-93
2023/07/18 05:25:38;;;;;;;;;;;;;;;35.35;33.55;98585.16;5116384;28;19923;-93
2023/07/18 05:28:04;;;;;;;;;;;;;;;35.31;32.73;98598.88;5116354;28;19915;-92
2023/07/18 05:30:30;;;;;;;;;;;;;;;35.02;32.64;98596.91;5116333;28;19912;-93
2023/07/18 05:32:56;;;;;;;;;;;;;;;34.85;31.84;98600.75;5110025;27;19930;-92
2023/07/18 05:35:22;;;;;;;;;;;;;;;34.67;33.62;98596.88;5108272;28;19969;-93
2023/07/18 05:37:48;;;;;;;;;;;;;;;34.86;34.48;98590.91;5077702;28;19920;-93
2023/07/18 05:40:15;;;;;;;;;;;;;;;35.25;34.03;98598.78;5110534;28;20371;-93
2023/07/18 05:42:41;;;;;;;;;;;;;;;35.24;30.38;98602.16;5115947;28;19915;-93
2023/07/18 05:45:08;;;;;;;;;;;;;;;34.83;31.95;98598.41;5116070;28;19916;-92
2023/07/18 05:47:37;;;;;;;;;;;;;;;34.84;33.69;98600.00;5116125;28;19916;-91
2023/07/18 05:50:04;;;;;;;;;;;;;;;34.80;33.04;98604.34;5115063;28;19915;-93
2023/07/18 05:52:30;;;;;;;;;;;;;;;35.22;31.57;98611.19;5115671;28;19922;-92
2023/07/18 05:54:56;;;;;;;;;;;;;;;35.26;32.37;98617.50;5115899;28;19916;-92
2023/07/18 05:57:23;;;;;;;;;;;;;;;35.45;32.48;98617.22;5115558;28;19922;-93
2023/07/18 05:59:49;;;;;;;;;;;;;;;35.19;31.88;98623.63;5115892;28;19916;-92
2023/07/18 06:02:16;;;;;;;;;;;;;;;34.91;30.45;98615.91;5115599;28;20061;-91
2023/07/18 06:04:42;;;;;;;;;;;;;;;35.02;30.79;98614.03;5115713;28;19963;-92
2023/07/18 06:07:09;;;;;;;;;;;;;;;34.90;30.49;98620.81;5111056;28;19965;-94
2023/07/18 06:09:35;;;;;;;;;;;;;;;34.52;32.51;98623.81;5095947;28;19916;-92
2023/07/18 06:12:01;;;;;;;;;;;;;;;34.57;28.52;98621.09;5076553;28;19927;-93
2023/07/18 06:14:27;;;;;;;;;;;;;;;34.05;37.08;98631.28;5095878;28;19916;-91
2023/07/18 06:16:53;;;;;;;;;;;;;;;33.07;36.13;98634.34;5096330;28;20340;-92
2023/07/18 06:19:21;;;;;;;;;;;;;;;33.52;27.90;98627.56;5096234;28;20074;-93
2023/07/18 06:21:48;;;;;;;;;;;;;;;33.69;27.97;98637.28;5103600;28;19920;-93
2023/07/18 06:24:15;;;;;;;;;;;;;;;33.31;27.32;98625.81;5111410;28;20318;-92
2023/07/18 06:26:44;;;;;;;;;;;;;;;33.61;29.47;98636.06;5095649;28;19912;-92
2023/07/18 06:29:10;;;;;;;;;;;;;;;33.26;32.02;98643.56;5095368;28;20256;-92
2023/07/18 06:31:37;;;;;;;;;;;;;;;33.68;28.52;98643.47;5094833;28;20426;-93
2023/07/18 06:34:03;;;;;;;;;;;;;;;33.73;27.53;98645.63;5095187;28;19966;-92
2023/07/18 06:36:29;;;;;;;;;;;;;;;33.04;31.48;98643.06;5095076;28;20384;-92
2023/07/18 06:38:55;;;;;;;;;;;;;;;32.96;27.79;98651.13;5109355;28;20018;-91
2023/07/18 06:41:21;;;;;;;;;;;;;;;33.59;27.05;98655.69;5109144;28;19923;-91
2023/07/18 06:43:48;;;;;;;;;;;;;;;33.69;27.67;98668.63;5094835;28;20014;-92
2023/07/18 06:46:14;;;;;;;;;;;;;;;32.97;37.31;98663.31;5094925;28;19916;-91
2023/07/18 06:48:40;;;;;;;;;;;;;;;32.29;28.73;98657.19;5094554;28;19939;-91
2023/07/18 06:51:06;;;;;;;;;;;;;;;32.40;30.71;98660.31;5094842;28;19916;-91
2023/07/18 06:53:33;;;;;;;;;;;;;;;32.70;31.60;98658.50;5094395;28;19966;-90
2023/07/18 06:55:59;;;;;;;;;;;;;;;32.84;36.53;98671.28;5094256;28;19923;-90
2023/07/18 06:58:25;;;;;;;;;;;;;;;33.24;29.30;98675.34;5094992;28;19916;-92
2023/07/18 07:00:51;;;;;;;;;;;;;;;33.18;28.19;98676.50;5094368;28;19916;-92
2023/07/18 07:03:17;;;;;;;;;;;;;;;33.11;28.08;98677.66;5094544;28;20011;-91
2023/07/18 07:05:43;;;;;;;;;;;;;;;32.78;37.23;98667.50;5094725;28;19970;-92
2023/07/18 07:08:10;;;;;;;;;;;;;;;32.74;27.98;98664.81;5098370;28;19915;-88
2023/07/18 07:10:36;;;;;;;;;;;;;;;33.07;29.67;98665.63;5114253;28;19915;-91
2023/07/18 07:13:03;;;;;;;;;;;;;;;33.35;31.53;98669.91;5114465;28;19915;-89
2023/07/18 07:15:29;;;;;;;;;;;;;;;32.92;30.36;98670.44;5107390;28;19924;-90
2023/07/18 07:17:55;;;;;;;;;;;;;;;33.00;28.60;98665.97;5094132;28;20395;-91
2023/07/18 07:20:24;;;;;;;;;;;;;;;33.72;29.74;98670.50;5094082;28;19917;-91
2023/07/18 07:22:51;;;;;;;;;;;;;;;34.32;26.74;98667.28;5111468;28;19916;-92
2023/07/18 07:25:17;;;;;;;;;;;;;;;34.65;26.68;98667.13;5109414;28;19916;-92
2023/07/18 07:27:43;;;;;;;;;;;;;;;34.72;27.10;98656.09;5093908;28;19924;-91
2023/07/18 07:30:15;;;;;;;;;;;;;;;34.50;25.77;98661.38;5092589;28;19927;-90
2023/07/18 07:32:41;;;;;;;;;;;;;;;34.27;30.27;98665.13;5094339;28;19923;-90
2023/07/18 07:35:08;;;;;;;;;;;;;;;33.11;29.08;98671.97;5092487;28;19935;-89
2023/07/18 07:37:34;;;;;;;;;;;;;;;33.89;25.54;98657.34;5093659;28;20375;-90
2023/07/18 07:40:00;;;;;;;;;;;;;;;33.78;25.29;98653.50;5100814;28;19916;-91
2023/07/18 07:42:26;;;;;;;;;;;;;;;33.43;35.13;98658.94;5114352;28;20109;-88
2023/07/18 07:44:52;;;;;;;;;;;;;;;33.56;26.90;98656.66;5095846;28;19947;-92
2023/07/18 07:47:18;;;;;;;;;;;;;;;33.46;29.89;98668.59;5114113;28;19943;-91
2023/07/18 07:49:44;;;;;;;;;;;;;;;33.95;26.37;98663.19;5104854;28;19922;-90
2023/07/18 07:52:11;;;;;;;;;;;;;;;33.38;34.08;98668.94;5093663;28;20010;-90
2023/07/18 07:54:37;;;;;;;;;;;;;;;33.81;28.38;98661.06;5093525;28;19916;-92
2023/07/18 07:57:03;;;;;;;;;;;;;;;32.95;33.95;98672.31;5093679;28;19969;-90
2023/07/18 07:59:29;;;;;;;;;;;;;;;33.60;30.10;98660.13;5093444;28;19924;-90
2023/07/18 08:01:55;;;;;;;;;;;;;;;33.35;36.86;98667.06;5093544;28;19916;-91
2023/07/18 08:04:21;;;;;;;;;;;;;;;33.47;27.47;98670.94;5093483;28;19923;-93
2023/07/18 08:06:47;;;;;;;;;;;;;;;33.38;27.66;98665.31;5094404;28;20399;-91
2023/07/18 08:09:13;;;;;;;;;;;;;;;33.00;38.40;98665.97;5093323;28;19967;-90
2023/07/18 08:11:39;;;;;;;;;;;;;;;32.69;30.34;98671.16;5110390;28;19923;-90
2023/07/18 08:14:05;;;;;;;;;;;;;;;32.95;26.54;98669.47;5113730;28;20291;-89
2023/07/18 08:16:31;;;;;;;;;;;;;;;33.42;25.75;98669.53;5095532;28;19938;-91
2023/07/18 08:18:57;;;;;;;;;;;;;;;32.27;34.58;98665.41;5113804;28;19916;-91
2023/07/18 08:21:23;;;;;;;;;;;;;;;32.75;27.73;98661.50;5113562;28;19922;-90
2023/07/18 08:23:49;;;;;;;;;;;;;;;33.44;25.40;98657.69;5108741;28;19963;-92
2023/07/18 08:26:15;;;;;;;;;;;;;;;32.98;29.55;98668.50;5093598;28;19970;-90
2023/07/18 08:28:41;;;;;;;;;;;;;;;33.83;26.85;98658.53;5093378;28;19916;-91
2023/07/18 08:31:07;;;;;;;;;;;;;;;33.34;34.91;98651.28;5093374;28;19923;-90
2023/07/18 08:33:33;;;;;;;;;;;;;;;34.24;26.98;98648.97;5093269;28;19923;-93
2023/07/18 08:35:59;;;;;;;;;;;;;;;34.50;25.60;98643.47;5096824;28;19924;-90
2023/07/18 08:38:25;;;;;;;;;;;;;;;34.03;26.52;98652.97;5096950;28;19923;-90
2023/07/18 08:40:52;;;;;;;;;;;;;;;34.03;24.54;98655.84;5097059;28;20014;-90
2023/07/18 08:43:18;;;;;;;;;;;;;;;34.61;24.92;98655.13;5096861;28;20039;-90
2023/07/18 08:45:45;;;;;;;;;;;;;;;34.25;25.85;98650.56;5096849;28;20275;-93
2023/07/18 08:48:13;;;;;;;;;;;;;;;34.25;26.80;98655.47;5096754;28;19916;-93
2023/07/18 08:50:40;;;;;;;;;;;;;;;34.26;25.22;98659.91;5096528;28;20377;-91
2023/07/18 08:53:06;;;;;;;;;;;;;;;34.29;25.09;98654.00;5096659;28;19999;-91
2023/07/18 08:55:32;;;;;;;;;;;;;;;33.90;25.27;98663.84;5096531;28;19917;-92
2023/07/18 08:57:59;;;;;;;;;;;;;;;33.98;29.33;98662.22;5097055;28;19962;-91
2023/07/18 09:00:25;;;;;;;;;;;;;;;33.55;31.30;98662.84;5096513;28;19924;-91
2023/07/18 09:02:51;;;;;;;;;;;;;;;33.94;26.96;98664.44;5096718;28;19916;-92
2023/07/18 09:05:29;;;;;;;;;;;;;;;34.00;28.00;98665.34;5095966;28;20479;-91
2023/07/18 09:07:56;;;;;;;;;;;;;;;32.65;40.16;98662.03;5096522;28;19991;-94
2023/07/18 09:10:23;;;;;;;;;;;;;;;33.33;33.03;98663.13;5102649;28;19937;-90
2023/07/18 09:12:49;;;;;;;;;;;;;;;33.64;25.66;98662.78;5116856;28;19961;-90
2023/07/18 09:15:19;;;;;;;;;;;;;;;33.28;33.25;98656.03;5115693;28;19920;-89
2023/07/18 09:17:52;;;;;;;;;;;;;;;33.20;34.52;98669.06;5116577;28;19916;-90
2023/07/18 09:20:18;;;;;;;;;;;;;;;34.02;31.31;98655.03;5116414;28;19960;-92
2023/07/18 09:22:45;;;;;;;;;;;;;;;34.33;27.35;98648.88;5111214;28;20362;-91
2023/07/18 09:25:14;;;;;;;;;;;;;;;34.31;24.45;98654.28;5096297;28;19916;-91
2023/07/18 09:27:41;;;;;;;;;;;;;;;34.76;25.40;98635.91;5095982;28;19916;-91
2023/07/18 09:30:07;;;;;;;;;;;;;;;35.25;24.33;98638.75;5096020;28;19923;-92
2023/07/18 09:32:34;;;;;;;;;;;;;;;34.66;31.82;98638.09;5096708;28;19968;-93
2023/07/18 09:35:00;;;;;;;;;;;;;;;34.63;24.71;98638.31;5095600;28;20372;-90
2023/07/18 09:37:27;;;;;;;;;;;;;;;34.42;24.90;98637.41;5095668;28;20045;-91
2023/07/18 09:39:54;;;;;;;;;;;;;;;35.26;24.01;98631.78;5095775;28;19923;-93
2023/07/18 09:42:21;;;;;;;;;;;;;;;35.34;23.97;98620.69;5103485;28;19923;-91
2023/07/18 09:44:50;;;;;;;;;;;;;;;35.44;25.24;98630.72;5116041;28;19938;-93
2023/07/18 09:47:17;;;;;;;;;;;;;;;35.45;24.78;98625.78;5097690;28;19938;-91
2023/07/18 09:49:43;;;;;;;;;;;;;;;34.86;31.13;98628.81;5098552;28;19942;-93
2023/07/18 09:52:10;;;;;;;;;;;;;;;35.35;25.81;98623.06;5095754;28;19920;-91
2023/07/18 09:54:37;;;;;;;;;;;;;;;35.21;27.24;98623.91;5095536;28;19959;-91
2023/07/18 09:57:05;;;;;;;;;;;;;;;33.96;30.05;98625.63;5095550;28;20015;-91
2023/07/18 09:59:34;;;;;;;;;;;;;;;34.79;23.61;98619.88;5095325;28;19930;-89
2023/07/18 10:02:04;;;;;;;;;;;;;;;35.56;22.80;98621.03;5095432;28;20385;-93
2023/07/18 10:04:30;;;;;;;;;;;;;;;35.90;23.79;98611.56;5095258;28;19978;-92
2023/07/18 10:06:56;;;;;;;;;;;;;;;36.20;23.46;98612.13;5096136;28;20269;-90
2023/07/18 10:09:23;;;;;;;;;;;;;;;35.66;28.03;98608.16;5095482;28;19916;-92
2023/07/18 10:11:58;;;;;;;;;;;;;;;35.93;23.63;98610.56;5113581;28;19915;-93
2023/07/18 10:14:42;;;;;;;;;;;;;;;36.04;24.56;98604.19;5115706;28;19998;-93
2023/07/18 10:17:08;;;;;;;;;;;;;;;36.53;23.57;98594.53;5115353;28;20637;-92
2023/07/18 10:19:47;;;;;;;;;;;;;;;35.92;26.44;98600.41;5115093;28;20007;-92
2023/07/18 10:22:26;;;;;;;;;;;;;;;34.70;29.93;98593.00;5103363;28;19916;-91
2023/07/18 10:24:52;;;;;;;;;;;;;;;35.93;26.88;98592.63;5076653;28;20392;-92
2023/07/18 10:27:21;;;;;;;;;;;;;;;36.51;24.50;98586.47;5095146;28;19926;-93
2023/07/18 10:30:03;;;;;;;;;;;;;;;36.12;24.89;98596.75;5094796;28;19924;-93
2023/07/18 10:32:31;;;;;;;;;;;;;;;36.03;28.09;98589.13;5094613;28;20028;-93
2023/07/18 10:34:58;;;;;;;;;;;;;;;36.12;22.75;98587.38;5094611;28;20441;-93
2023/07/18 10:37:26;;;;;;;;;;;;;;;36.78;22.68;98584.31;5094470;28;20326;-93
2023/07/18 10:39:53;;;;;;;;;;;;;;;36.72;23.19;98575.69;5095469;28;20388;-92
2023/07/18 10:42:28;;;;;;;;;;;;;;;36.91;22.15;98573.19;5094522;28;19922;-93
2023/07/18 10:44:59;;;;;;;;;;;;;;;36.81;22.43;98578.34;5106045;28;21385;-92
2023/07/18 10:47:26;;;;;;;;;;;;;;;36.86;21.80;98566.16;5114953;28;19916;-92
2023/07/18 10:49:53;;;;;;;;;;;;;;;36.87;24.27;98564.88;5114712;28;19922;-92
2023/07/18 10:52:20;;;;;;;;;;;;;;;36.93;22.09;98565.69;5114778;28;19916;-90
2023/07/18 10:54:48;;;;;;;;;;;;;;;37.18;23.25;98564.78;5114922;28;20328;-92
2023/07/18 10:57:15;;;;;;;;;;;;;;;36.67;23.80;98547.81;5100826;28;19916;-93
2023/07/18 10:59:43;;;;;;;;;;;;;;;35.82;34.70;98561.84;5094479;28;20398;-94
2023/07/18 11:02:09;;;;;;;;;;;;;;;36.57;22.48;98552.19;5094227;28;19923;-93
2023/07/18 11:04:35;;;;;;;;;;;;;;;36.62;21.79;98560.00;5094580;28;19916;-93
2023/07/18 11:07:01;;;;;;;;;;;;;;;36.64;20.88;98548.84;5103856;27;19916;-93
2023/07/18 11:09:27;;;;;;;;;;;;;;;36.35;27.20;98543.38;5104604;27;19930;-93
2023/07/18 11:11:54;;;;;;;;;;;;;;;36.94;21.32;98544.38;5112995;28;19939;-95
2023/07/18 11:14:20;;;;;;;;;;;;;;;36.77;26.19;98540.59;5100629;28;19957;-95
2023/07/18 11:16:46;;;;;;;;;;;;;;;36.95;23.25;98540.19;5093966;28;19932;-94
2023/07/18 11:19:13;;;;;;;;;;;;;;;36.60;21.91;98536.81;5094207;28;19935;-94
2023/07/18 11:21:39;;;;;;;;;;;;;;;36.62;21.58;98537.88;5094047;28;19916;-93
2023/07/18 11:24:06;;;;;;;;;;;;;;;36.29;22.80;98529.06;5094276;28;19924;-94
2023/07/18 11:26:32;;;;;;;;;;;;;;;36.52;21.41;98532.88;5094005;28;20363;-95
2023/07/18 11:28:59;;;;;;;;;;;;;;;36.84;21.34;98528.66;5093942;28;19920;-95
2023/07/18 11:31:25;;;;;;;;;;;;;;;36.53;22.48;98537.31;5108199;28;19969;-95
2023/07/18 11:33:53;;;;;;;;;;;;;;;36.47;25.97;98527.91;5095905;28;19915;-93
2023/07/18 11:36:20;;;;;;;;;;;;;;;36.19;29.09;98527.66;5114061;28;19966;-93
2023/07/18 11:38:50;;;;;;;;;;;;;;;37.09;20.37;98521.25;5095871;28;19924;-94
2023/07/18 11:41:36;;;;;;;;;;;;;;;37.06;20.85;98523.06;5114209;28;20298;-93
2023/07/18 11:44:03;;;;;;;;;;;;;;;37.61;20.53;98513.94;5113374;28;19916;-94
2023/07/18 11:46:42;;;;;;;;;;;;;;;37.07;19.22;98507.47;5114085;28;19916;-94
2023/07/18 11:49:16;;;;;;;;;;;;;;;37.32;19.27;98505.72;5093817;28;19927;-95
2023/07/18 11:51:42;;;;;;;;;;;;;;;36.79;22.05;98500.78;5094290;28;19916;-95
2023/07/18 11:54:09;;;;;;;;;;;;;;;36.15;20.60;98503.44;5094223;28;20026;-94
2023/07/18 11:56:35;;;;;;;;;;;;;;;36.14;25.16;98499.78;5093820;28;19917;-93
2023/07/18 11:59:01;;;;;;;;;;;;;;;37.00;18.98;98496.50;5093931;28;19916;-95
2023/07/18 12:01:27;;;;;;;;;;;;;;;37.74;19.06;98502.00;5093254;28;19917;-94
2023/07/18 12:03:54;;;;;;;;;;;;;;;37.58;24.68;98499.84;5094076;28;19916;-93
2023/07/18 12:06:21;;;;;;;;;;;;;;;37.28;20.55;98505.22;5093663;28;19920;-94
2023/07/18 12:08:48;;;;;;;;;;;;;;;37.48;20.60;98501.41;5093861;28;19920;-94
2023/07/18 12:11:14;;;;;;;;;;;;;;;37.86;19.29;98495.75;5111095;28;19922;-95
2023/07/18 12:13:40;;;;;;;;;;;;;;;37.91;19.70;98488.47;5117968;28;19955;-93
2023/07/18 12:16:10;;;;;;;;;;;;;;;36.86;22.78;98497.44;5118042;28;19920;-93
2023/07/18 12:18:36;;;;;;;;;;;;;;;36.80;22.18;98493.00;5117898;28;19919;-93
2023/07/18 12:21:02;;;;;;;;;;;;;;;37.24;22.33;98494.00;5098953;28;19923;-94
2023/07/18 12:23:28;;;;;;;;;;;;;;;36.60;23.49;98485.31;5118011;28;19972;-91
2023/07/18 12:25:54;;;;;;;;;;;;;;;36.70;21.73;98490.34;5117880;28;19916;-93
2023/07/18 12:28:20;;;;;;;;;;;;;;;36.70;23.59;98480.97;5117731;28;19960;-94
2023/07/18 12:30:46;;;;;;;;;;;;;;;36.87;20.68;98481.06;5117796;28;19916;-94
2023/07/18 12:33:12;;;;;;;;;;;;;;;36.87;19.92;98481.84;5117887;28;19971;-95
2023/07/18 12:35:38;;;;;;;;;;;;;;;36.89;23.08;98473.53;5117456;28;19927;-93
2023/07/18 12:38:06;;;;;;;;;;;;;;;36.67;19.30;98461.94;5114062;28;19923;-91
2023/07/18 12:40:32;;;;;;;;;;;;;;;36.87;20.63;98458.94;5097079;28;19919;-91
2023/07/18 12:42:58;;;;;;;;;;;;;;;36.51;21.49;98459.78;5078579;28;19973;-94
2023/07/18 12:45:24;;;;;;;;;;;;;;;36.83;23.55;98457.63;5097425;28;19997;-90